createdAt,value
2018-02-14T00:00:02.316Z,85.90
2018-02-14T00:00:36.320Z,85.80
2018-02-14T00:01:10.218Z,85.90
2018-02-14T00:01:44.655Z,85.90
2018-02-14T00:02:18.348Z,85.90
2018-02-14T00:02:52.049Z,85.90
2018-02-14T00:03:25.713Z,85.90
2018-02-14T00:04:00.157Z,85.80
2018-02-14T00:04:33.872Z,85.80
2018-02-14T00:05:07.545Z,85.80
2018-02-14T00:05:41.419Z,85.80
2018-02-14T00:06:16.454Z,85.80
2018-02-14T00:06:50.117Z,85.60
2018-02-14T00:07:23.805Z,85.80
2018-02-14T00:07:57.486Z,85.80
2018-02-14T00:08:31.166Z,85.80
2018-02-14T00:09:04.952Z,85.70
2018-02-14T00:09:39.413Z,85.80
2018-02-14T00:10:13.184Z,85.70
2018-02-14T00:10:46.855Z,85.70
2018-02-14T00:11:20.663Z,85.80
2018-02-14T00:11:54.338Z,85.80
2018-02-14T00:12:28.022Z,85.80
2018-02-14T00:13:02.461Z,85.80
2018-02-14T00:13:36.224Z,85.80
2018-02-14T00:14:09.918Z,85.80
2018-02-14T00:14:43.608Z,85.80
2018-02-14T00:15:18.257Z,85.80
2018-02-14T00:15:53.154Z,85.80
2018-02-14T00:16:27.161Z,85.80
2018-02-14T00:17:00.871Z,85.80
2018-02-14T00:17:34.738Z,85.90
2018-02-14T00:18:08.865Z,85.90
2018-02-14T00:18:42.541Z,85.90
2018-02-14T00:19:16.213Z,86.00
2018-02-14T00:19:49.885Z,86.00
2018-02-14T00:20:24.326Z,86.00
2018-02-14T00:21:01.157Z,86.00
2018-02-14T00:21:34.883Z,86.00
2018-02-14T00:22:08.226Z,86.00
2018-02-14T00:22:42.670Z,86.10
2018-02-14T00:23:16.972Z,86.10
2018-02-14T00:23:50.701Z,86.10
2018-02-14T00:24:25.150Z,86.10
2018-02-14T00:24:58.960Z,86.10
2018-02-14T00:25:32.644Z,86.00
2018-02-14T00:26:06.326Z,86.00
2018-02-14T00:26:40.023Z,86.00
2018-02-14T00:27:13.706Z,86.00
2018-02-14T00:27:47.388Z,86.00
2018-02-14T00:28:21.057Z,85.90
2018-02-14T00:28:55.510Z,85.90
2018-02-14T00:29:29.190Z,85.90
2018-02-14T00:30:02.862Z,85.90
2018-02-14T00:30:36.559Z,85.90
2018-02-14T00:31:10.230Z,85.90
2018-02-14T00:31:44.698Z,85.80
2018-02-14T00:32:18.386Z,85.80
2018-02-14T00:32:52.055Z,86.00
2018-02-14T00:33:25.749Z,85.90
2018-02-14T00:33:59.432Z,86.00
2018-02-14T00:34:33.140Z,86.00
2018-02-14T00:35:06.818Z,86.00
2018-02-14T00:35:40.494Z,86.10
2018-02-14T00:36:14.174Z,86.10
2018-02-14T00:36:48.124Z,86.10
2018-02-14T00:37:21.794Z,86.10
2018-02-14T00:37:55.466Z,86.10
2018-02-14T00:38:29.156Z,86.10
2018-02-14T00:39:02.846Z,86.10
2018-02-14T00:39:36.531Z,86.10
2018-02-14T00:40:10.201Z,86.10
2018-02-14T00:40:43.867Z,86.10
2018-02-14T00:41:18.302Z,86.70
2018-02-14T00:41:51.998Z,86.10
2018-02-14T00:42:25.673Z,86.00
2018-02-14T00:42:59.381Z,86.00
2018-02-14T00:43:33.062Z,85.90
2018-02-14T00:44:06.736Z,86.00
2018-02-14T00:44:41.179Z,86.00
2018-02-14T00:45:14.855Z,86.00
2018-02-14T00:45:48.526Z,86.10
2018-02-14T00:46:23.019Z,86.20
2018-02-14T00:46:57.493Z,86.20
2018-02-14T00:47:31.182Z,86.20
2018-02-14T00:48:04.853Z,86.30
2018-02-14T00:48:38.531Z,86.20
2018-02-14T00:49:12.213Z,86.30
2018-02-14T00:49:45.881Z,86.30
2018-02-14T00:50:20.327Z,86.30
2018-02-14T00:50:53.661Z,86.20
2018-02-14T00:51:27.339Z,86.20
2018-02-14T00:52:01.033Z,86.30
2018-02-14T00:52:34.696Z,86.30
2018-02-14T00:53:08.390Z,86.40
2018-02-14T00:53:42.073Z,86.40
2018-02-14T00:54:15.751Z,86.40
2018-02-14T00:54:49.423Z,86.50
2018-02-14T00:55:23.092Z,86.40
2018-02-14T00:55:57.533Z,86.20
2018-02-14T00:56:31.201Z,86.20
2018-02-14T00:57:05.182Z,86.20
2018-02-14T00:57:39.629Z,86.40
2018-02-14T00:58:13.316Z,86.30
2018-02-14T00:58:47.006Z,86.30
2018-02-14T00:59:20.681Z,86.30
2018-02-14T00:59:54.350Z,86.40
2018-02-14T01:00:28.786Z,86.50
2018-02-14T01:01:02.482Z,86.40
2018-02-14T01:01:36.152Z,86.50
2018-02-14T01:02:09.848Z,86.50
2018-02-14T01:02:43.520Z,86.50
2018-02-14T01:03:17.965Z,86.40
2018-02-14T01:03:51.649Z,86.40
2018-02-14T01:04:25.319Z,86.40
2018-02-14T01:04:58.998Z,86.50
2018-02-14T01:05:32.681Z,86.50
2018-02-14T01:06:07.137Z,86.40
2018-02-14T01:06:40.821Z,86.40
2018-02-14T01:07:14.532Z,86.40
2018-02-14T01:07:48.211Z,86.50
2018-02-14T01:08:21.891Z,86.60
2018-02-14T01:08:55.573Z,86.60
2018-02-14T01:09:29.241Z,86.60
2018-02-14T01:10:02.913Z,86.70
2018-02-14T01:10:37.362Z,86.60
2018-02-14T01:11:11.029Z,86.60
2018-02-14T01:11:44.707Z,86.60
2018-02-14T01:12:18.426Z,86.50
2018-02-14T01:12:52.098Z,86.50
2018-02-14T01:13:25.790Z,86.60
2018-02-14T01:13:59.458Z,86.70
2018-02-14T01:14:33.897Z,86.70
2018-02-14T01:15:07.570Z,86.70
2018-02-14T01:15:41.247Z,86.60
2018-02-14T01:16:15.690Z,86.70
2018-02-14T01:16:49.361Z,86.70
2018-02-14T01:17:23.066Z,86.70
2018-02-14T01:17:56.766Z,86.70
2018-02-14T01:19:39.364Z,86.80
2018-02-14T01:20:12.862Z,86.80
2018-02-14T01:20:46.539Z,86.80
2018-02-14T01:21:20.202Z,86.80
2018-02-14T01:21:53.890Z,86.80
2018-02-14T01:22:28.365Z,86.90
2018-02-14T01:23:02.026Z,86.90
2018-02-14T01:23:35.705Z,86.90
2018-02-14T01:24:09.386Z,86.90
2018-02-14T01:24:43.062Z,86.90
2018-02-14T01:25:16.749Z,87.00
2018-02-14T01:25:51.185Z,87.10
2018-02-14T01:26:24.870Z,87.10
2018-02-14T01:26:58.561Z,87.10
2018-02-14T01:27:32.266Z,87.10
2018-02-14T01:28:05.942Z,87.10
2018-02-14T01:28:39.666Z,87.10
2018-02-14T01:29:14.263Z,87.10
2018-02-14T01:29:47.929Z,87.00
2018-02-14T01:30:21.593Z,87.00
2018-02-14T01:30:56.036Z,87.10
2018-02-14T01:31:29.718Z,87.10
2018-02-14T01:32:03.405Z,87.20
2018-02-14T01:32:37.102Z,87.20
2018-02-14T01:33:10.784Z,87.20
2018-02-14T01:33:44.456Z,87.20
2018-02-14T01:34:18.141Z,86.90
2018-02-14T01:34:51.821Z,86.90
2018-02-14T01:35:26.261Z,87.00
2018-02-14T01:35:59.925Z,86.80
2018-02-14T01:36:34.367Z,86.80
2018-02-14T01:37:08.043Z,86.80
2018-02-14T01:37:41.758Z,86.80
2018-02-14T01:38:15.447Z,86.90
2018-02-14T01:38:49.117Z,86.90
2018-02-14T01:39:22.806Z,87.00
2018-02-14T01:39:56.146Z,86.90
2018-02-14T01:40:30.591Z,87.00
2018-02-14T01:41:04.258Z,87.00
2018-02-14T01:41:38.694Z,87.30
2018-02-14T01:42:12.376Z,87.30
2018-02-14T01:42:46.454Z,87.30
2018-02-14T01:43:20.889Z,87.40
2018-02-14T01:43:54.573Z,87.30
2018-02-14T01:44:28.249Z,87.30
2018-02-14T01:45:01.916Z,87.30
2018-02-14T01:45:35.586Z,87.40
2018-02-14T01:46:09.275Z,87.50
2018-02-14T01:46:42.943Z,87.40
2018-02-14T01:47:16.629Z,87.40
2018-02-14T01:47:50.685Z,87.40
2018-02-14T01:48:25.136Z,87.40
2018-02-14T01:48:58.811Z,87.30
2018-02-14T01:49:32.493Z,87.30
2018-02-14T01:50:05.511Z,87.30
2018-02-14T01:50:39.800Z,87.30
2018-02-14T01:51:13.489Z,87.30
2018-02-14T01:51:47.171Z,87.30
2018-02-14T01:52:20.841Z,87.30
2018-02-14T01:52:54.542Z,87.30
2018-02-14T01:53:28.212Z,87.30
2018-02-14T01:54:01.885Z,87.30
2018-02-14T01:54:36.334Z,87.50
2018-02-14T01:55:10.007Z,87.40
2018-02-14T01:55:43.672Z,87.50
2018-02-14T01:56:18.138Z,87.50
2018-02-14T01:56:51.819Z,87.40
2018-02-14T01:57:25.502Z,87.60
2018-02-14T01:57:59.226Z,87.70
2018-02-14T01:58:32.904Z,87.70
2018-02-14T01:59:06.584Z,87.60
2018-02-14T01:59:40.266Z,87.60
2018-02-14T02:00:13.622Z,87.70
2018-02-14T02:00:47.298Z,87.70
2018-02-14T02:01:20.978Z,87.60
2018-02-14T02:01:55.430Z,87.70
2018-02-14T02:02:29.102Z,87.60
2018-02-14T02:03:02.805Z,87.70
2018-02-14T02:03:36.482Z,87.80
2018-02-14T02:04:10.167Z,87.80
2018-02-14T02:04:43.838Z,87.80
2018-02-14T02:05:18.285Z,87.70
2018-02-14T02:05:51.978Z,87.70
2018-02-14T02:06:25.657Z,87.60
2018-02-14T02:06:59.333Z,87.60
2018-02-14T02:07:33.014Z,87.50
2018-02-14T02:08:06.700Z,87.60
2018-02-14T02:08:40.393Z,87.60
2018-02-14T02:09:14.073Z,87.70
2018-02-14T02:09:48.512Z,87.70
2018-02-14T02:10:22.177Z,87.70
2018-02-14T02:10:55.857Z,87.70
2018-02-14T02:11:30.307Z,87.80
2018-02-14T02:12:04.014Z,88.40
2018-02-14T02:12:37.690Z,87.70
2018-02-14T02:13:11.936Z,87.60
2018-02-14T02:13:46.374Z,87.80
2018-02-14T02:14:20.050Z,87.80
2018-02-14T02:14:54.495Z,87.80
2018-02-14T02:15:28.193Z,87.80
2018-02-14T02:16:01.874Z,87.90
2018-02-14T02:16:35.566Z,87.80
2018-02-14T02:17:09.242Z,87.90
2018-02-14T02:17:42.916Z,87.90
2018-02-14T02:18:16.625Z,87.90
2018-02-14T02:18:50.492Z,87.90
2018-02-14T02:19:24.593Z,87.90
2018-02-14T02:19:59.033Z,87.90
2018-02-14T02:20:35.019Z,87.90
2018-02-14T02:21:08.869Z,87.90
2018-02-14T02:21:42.561Z,87.80
2018-02-14T02:22:16.263Z,87.70
2018-02-14T02:22:49.937Z,87.70
2018-02-14T02:23:23.635Z,87.80
2018-02-14T02:23:57.424Z,87.80
2018-02-14T02:24:31.094Z,87.80
2018-02-14T02:25:04.421Z,87.90
2018-02-14T02:25:38.086Z,87.90
2018-02-14T02:26:11.778Z,87.90
2018-02-14T02:26:45.460Z,87.80
2018-02-14T02:27:19.141Z,87.60
2018-02-14T02:27:52.819Z,87.50
2018-02-14T02:28:26.521Z,87.50
2018-02-14T02:29:00.195Z,87.60
2018-02-14T02:29:33.874Z,87.50
2018-02-14T02:30:07.561Z,87.50
2018-02-14T02:30:41.666Z,87.70
2018-02-14T02:31:15.363Z,87.60
2018-02-14T02:31:49.040Z,87.70
2018-02-14T02:32:23.489Z,87.80
2018-02-14T02:32:57.160Z,87.70
2018-02-14T02:33:30.886Z,87.80
2018-02-14T02:34:04.562Z,87.80
2018-02-14T02:34:38.249Z,87.80
2018-02-14T02:35:11.939Z,87.90
2018-02-14T02:35:45.614Z,87.90
2018-02-14T02:36:19.288Z,87.90
2018-02-14T02:36:56.013Z,88.00
2018-02-14T02:37:29.695Z,88.00
2018-02-14T02:38:03.372Z,88.00
2018-02-14T02:38:36.760Z,88.00
2018-02-14T02:39:32.560Z,88.00
2018-02-14T02:41:02.905Z,87.70
2018-02-14T02:41:36.593Z,87.50
2018-02-14T02:42:10.267Z,87.90
2018-02-14T02:42:43.946Z,87.90
2018-02-14T02:43:17.626Z,88.00
2018-02-14T02:43:51.418Z,88.00
2018-02-14T02:44:25.094Z,88.00
2018-02-14T02:44:58.754Z,88.00
2018-02-14T02:45:33.198Z,88.10
2018-02-14T02:46:06.879Z,88.10
2018-02-14T02:46:40.552Z,88.20
2018-02-14T02:47:14.986Z,88.20
2018-02-14T02:47:48.666Z,88.20
2018-02-14T02:48:22.328Z,88.20
2018-02-14T02:48:56.802Z,88.20
2018-02-14T02:49:30.473Z,88.20
2018-02-14T02:50:03.833Z,88.10
2018-02-14T02:50:37.515Z,88.20
2018-02-14T02:51:11.183Z,88.20
2018-02-14T02:51:45.690Z,88.30
2018-02-14T02:52:20.125Z,88.30
2018-02-14T02:52:53.802Z,88.20
2018-02-14T02:53:27.489Z,88.20
2018-02-14T02:54:01.967Z,88.20
2018-02-14T02:54:35.649Z,88.20
2018-02-14T02:55:09.323Z,88.20
2018-02-14T02:55:43.013Z,88.20
2018-02-14T02:56:16.702Z,88.20
2018-02-14T02:56:50.370Z,88.20
2018-02-14T02:57:24.049Z,88.30
2018-02-14T02:57:57.763Z,88.40
2018-02-14T02:58:31.443Z,88.40
2018-02-14T02:59:05.150Z,88.40
2018-02-14T02:59:38.834Z,88.40
2018-02-14T03:00:12.755Z,88.20
2018-02-14T03:00:46.426Z,88.90
2018-02-14T03:01:20.118Z,88.30
2018-02-14T03:01:53.797Z,88.90
2018-02-14T03:02:27.466Z,88.30
2018-02-14T03:03:01.153Z,88.30
2018-02-14T03:03:34.828Z,88.30
2018-02-14T03:04:08.536Z,88.20
2018-02-14T03:04:42.210Z,88.20
2018-02-14T03:05:15.883Z,88.20
2018-02-14T03:05:50.322Z,88.20
2018-02-14T03:06:24.006Z,88.20
2018-02-14T03:06:57.690Z,88.10
2018-02-14T03:07:31.361Z,88.10
2018-02-14T03:08:05.798Z,88.20
2018-02-14T03:08:39.469Z,88.10
2018-02-14T03:09:13.158Z,88.10
2018-02-14T03:09:46.833Z,88.10
2018-02-14T03:10:21.264Z,88.90
2018-02-14T03:10:55.004Z,88.20
2018-02-14T03:11:28.710Z,88.20
2018-02-14T03:12:02.384Z,88.20
2018-02-14T03:12:36.048Z,88.30
2018-02-14T03:13:09.722Z,88.10
2018-02-14T03:13:43.401Z,88.20
2018-02-14T03:14:17.102Z,88.20
2018-02-14T03:14:50.786Z,88.20
2018-02-14T03:15:24.462Z,88.10
2018-02-14T03:15:58.907Z,88.10
2018-02-14T03:16:32.577Z,88.10
2018-02-14T03:17:06.265Z,88.00
2018-02-14T03:17:39.944Z,88.00
2018-02-14T03:18:13.612Z,87.90
2018-02-14T03:18:48.043Z,88.60
2018-02-14T03:19:22.021Z,88.00
2018-02-14T03:19:56.457Z,88.00
2018-02-14T03:20:29.946Z,88.00
2018-02-14T03:21:03.630Z,88.00
2018-02-14T03:21:37.311Z,88.00
2018-02-14T03:22:10.982Z,88.00
2018-02-14T03:22:45.454Z,87.90
2018-02-14T03:23:19.134Z,87.90
2018-02-14T03:23:52.798Z,87.90
2018-02-14T03:24:26.559Z,87.90
2018-02-14T03:25:01.046Z,88.00
2018-02-14T03:25:34.715Z,87.90
2018-02-14T03:26:08.382Z,88.00
2018-02-14T03:26:42.050Z,88.00
2018-02-14T03:27:16.494Z,88.10
2018-02-14T03:27:50.159Z,88.10
2018-02-14T03:28:23.841Z,88.10
2018-02-14T03:28:57.522Z,88.20
2018-02-14T03:29:31.995Z,88.20
2018-02-14T03:30:05.666Z,88.20
2018-02-14T03:30:39.351Z,88.20
2018-02-14T03:31:13.025Z,88.20
2018-02-14T03:31:46.697Z,88.10
2018-02-14T03:32:20.393Z,88.30
2018-02-14T03:32:54.074Z,88.30
2018-02-14T03:33:27.757Z,88.20
2018-02-14T03:34:02.208Z,88.50
2018-02-14T03:34:36.159Z,88.50
2018-02-14T03:35:10.612Z,88.30
2018-02-14T03:35:44.302Z,88.30
2018-02-14T03:36:17.990Z,88.40
2018-02-14T03:36:51.649Z,88.30
2018-02-14T03:37:25.338Z,88.30
2018-02-14T03:37:59.028Z,88.40
2018-02-14T03:38:32.718Z,88.20
2018-02-14T03:39:05.734Z,88.20
2018-02-14T03:39:39.434Z,88.20
2018-02-14T03:40:13.121Z,88.20
2018-02-14T03:40:46.811Z,88.10
2018-02-14T03:41:20.490Z,88.10
2018-02-14T03:41:54.172Z,88.10
2018-02-14T03:42:27.862Z,88.10
2018-02-14T03:43:01.365Z,88.10
2018-02-14T03:43:34.853Z,88.10
2018-02-14T03:44:08.522Z,88.10
2018-02-14T03:44:41.901Z,88.10
2018-02-14T03:45:15.594Z,88.10
2018-02-14T03:45:49.090Z,88.20
2018-02-14T03:46:22.771Z,88.20
2018-02-14T03:46:56.461Z,88.20
2018-02-14T03:47:30.133Z,88.20
2018-02-14T03:48:03.806Z,88.20
2018-02-14T03:48:37.497Z,88.10
2018-02-14T03:49:11.183Z,88.30
2018-02-14T03:49:44.907Z,88.30
2018-02-14T03:50:18.594Z,88.20
2018-02-14T03:50:52.288Z,88.20
2018-02-14T03:51:25.994Z,88.20
2018-02-14T03:51:59.673Z,88.20
2018-02-14T03:52:33.387Z,88.20
2018-02-14T03:53:07.066Z,88.20
2018-02-14T03:53:40.741Z,88.10
2018-02-14T03:54:14.423Z,88.10
2018-02-14T03:54:48.118Z,88.20
2018-02-14T03:55:21.803Z,88.20
2018-02-14T03:55:55.498Z,88.30
2018-02-14T03:56:29.185Z,88.40
2018-02-14T03:57:02.695Z,88.40
2018-02-14T03:57:36.181Z,88.50
2018-02-14T03:58:09.666Z,88.50
2018-02-14T03:58:43.333Z,88.50
2018-02-14T03:59:16.818Z,88.60
2018-02-14T03:59:50.326Z,88.60
2018-02-14T04:00:23.987Z,88.60
2018-02-14T04:00:57.658Z,88.60
2018-02-14T04:01:31.334Z,88.60
2018-02-14T04:02:05.012Z,88.60
2018-02-14T04:02:39.457Z,88.50
2018-02-14T04:03:13.120Z,88.40
2018-02-14T04:03:46.800Z,88.40
2018-02-14T04:04:21.243Z,88.40
2018-02-14T04:04:54.755Z,88.30
2018-02-14T04:05:28.494Z,88.30
2018-02-14T04:06:01.982Z,88.40
2018-02-14T04:06:40.596Z,88.40
2018-02-14T04:07:14.277Z,88.40
2018-02-14T04:07:47.955Z,88.40
2018-02-14T04:08:22.395Z,88.50
2018-02-14T04:08:56.067Z,88.50
2018-02-14T04:09:29.741Z,88.50
2018-02-14T04:10:03.874Z,88.50
2018-02-14T04:10:37.541Z,88.50
2018-02-14T04:11:11.989Z,88.50
2018-02-14T04:11:45.671Z,88.50
2018-02-14T04:12:19.346Z,88.60
2018-02-14T04:12:53.016Z,89.20
2018-02-14T04:13:26.706Z,88.60
2018-02-14T04:14:01.148Z,88.60
2018-02-14T04:14:34.811Z,88.60
2018-02-14T04:15:08.522Z,88.50
2018-02-14T04:15:42.189Z,88.60
2018-02-14T04:16:16.628Z,88.70
2018-02-14T04:16:50.310Z,88.70
2018-02-14T04:17:24.008Z,88.70
2018-02-14T04:17:57.690Z,88.70
2018-02-14T04:18:31.039Z,88.60
2018-02-14T04:19:05.491Z,88.70
2018-02-14T04:19:39.165Z,88.60
2018-02-14T04:20:12.867Z,88.60
2018-02-14T04:20:46.546Z,88.60
2018-02-14T04:21:20.248Z,88.50
2018-02-14T04:21:53.937Z,88.50
2018-02-14T04:22:27.613Z,88.40
2018-02-14T04:23:01.290Z,88.40
2018-02-14T04:23:34.793Z,88.30
2018-02-14T04:24:08.301Z,88.30
2018-02-14T04:24:41.798Z,88.40
2018-02-14T04:25:15.522Z,88.40
2018-02-14T04:25:49.967Z,88.40
2018-02-14T04:26:23.456Z,88.40
2018-02-14T04:26:56.799Z,88.40
2018-02-14T04:27:30.490Z,88.40
2018-02-14T04:28:03.976Z,88.40
2018-02-14T04:28:37.461Z,88.30
2018-02-14T04:29:11.153Z,88.40
2018-02-14T04:29:44.826Z,88.40
2018-02-14T04:30:22.521Z,88.70
2018-02-14T04:30:56.990Z,88.60
2018-02-14T04:31:30.658Z,88.60
2018-02-14T04:32:04.345Z,88.60
2018-02-14T04:32:38.003Z,88.60
2018-02-14T04:33:11.685Z,88.50
2018-02-14T04:33:46.125Z,88.50
2018-02-14T04:34:19.789Z,88.40
2018-02-14T04:34:53.467Z,88.40
2018-02-14T04:35:27.948Z,88.40
2018-02-14T04:36:01.613Z,88.40
2018-02-14T04:36:35.326Z,89.10
2018-02-14T04:37:09.051Z,88.50
2018-02-14T04:37:42.897Z,88.60
2018-02-14T04:38:16.565Z,88.60
2018-02-14T04:38:50.230Z,88.60
2018-02-14T04:39:23.913Z,88.50
2018-02-14T04:39:58.341Z,88.50
2018-02-14T04:40:32.312Z,88.50
2018-02-14T04:41:06.568Z,88.60
2018-02-14T04:41:40.446Z,88.60
2018-02-14T04:42:14.126Z,88.60
2018-02-14T04:42:47.794Z,88.60
2018-02-14T04:43:22.233Z,88.50
2018-02-14T04:43:55.894Z,88.60
2018-02-14T04:44:30.330Z,88.50
2018-02-14T04:45:03.677Z,88.50
2018-02-14T04:45:38.146Z,88.50
2018-02-14T04:46:11.835Z,88.50
2018-02-14T04:46:45.518Z,88.50
2018-02-14T04:47:19.188Z,88.50
2018-02-14T04:47:52.873Z,88.40
2018-02-14T04:48:26.537Z,88.50
2018-02-14T04:49:00.225Z,88.50
2018-02-14T04:49:33.910Z,88.50
2018-02-14T04:50:08.357Z,88.50
2018-02-14T04:50:42.418Z,88.50
2018-02-14T04:51:16.861Z,88.50
2018-02-14T04:51:50.528Z,88.50
2018-02-14T04:52:24.195Z,88.50
2018-02-14T04:52:58.638Z,88.60
2018-02-14T04:53:32.302Z,88.60
2018-02-14T04:54:06.737Z,88.70
2018-02-14T04:54:40.405Z,88.70
2018-02-14T04:55:14.091Z,88.70
2018-02-14T04:55:48.580Z,88.80
2018-02-14T04:56:23.009Z,89.10
2018-02-14T04:56:56.694Z,88.70
2018-02-14T04:57:31.134Z,88.60
2018-02-14T04:58:04.842Z,88.60
2018-02-14T04:58:38.510Z,88.60
2018-02-14T04:59:12.175Z,88.60
2018-02-14T04:59:45.854Z,88.60
2018-02-14T05:00:20.494Z,88.50
2018-02-14T05:00:54.215Z,88.50
2018-02-14T05:01:27.905Z,88.50
2018-02-14T05:02:01.595Z,88.50
2018-02-14T05:02:35.266Z,88.50
2018-02-14T05:03:08.932Z,88.50
2018-02-14T05:03:42.606Z,88.60
2018-02-14T05:04:17.041Z,88.60
2018-02-14T05:04:50.713Z,88.50
2018-02-14T05:05:24.397Z,88.40
2018-02-14T05:05:58.855Z,88.30
2018-02-14T05:06:32.354Z,88.30
2018-02-14T05:07:06.022Z,88.30
2018-02-14T05:07:39.700Z,88.20
2018-02-14T05:08:13.379Z,88.20
2018-02-14T05:08:47.045Z,88.10
2018-02-14T05:09:21.495Z,88.20
2018-02-14T05:09:55.169Z,88.20
2018-02-14T05:10:28.834Z,88.20
2018-02-14T05:11:03.648Z,88.20
2018-02-14T05:11:38.094Z,88.10
2018-02-14T05:12:11.771Z,88.10
2018-02-14T05:12:45.454Z,88.10
2018-02-14T05:13:19.120Z,88.10
2018-02-14T05:13:53.578Z,88.20
2018-02-14T05:14:27.253Z,88.20
2018-02-14T05:15:00.918Z,88.00
2018-02-14T05:15:35.350Z,88.60
2018-02-14T05:16:09.056Z,88.00
2018-02-14T05:16:42.747Z,88.00
2018-02-14T05:17:16.470Z,88.00
2018-02-14T05:17:50.917Z,88.10
2018-02-14T05:18:24.581Z,88.10
2018-02-14T05:18:59.027Z,88.20
2018-02-14T05:19:32.710Z,88.10
2018-02-14T05:20:06.390Z,88.20
2018-02-14T05:20:40.058Z,88.20
2018-02-14T05:21:14.523Z,88.40
2018-02-14T05:21:48.210Z,88.20
2018-02-14T05:22:21.891Z,88.20
2018-02-14T05:22:55.602Z,88.30
2018-02-14T05:23:29.285Z,88.20
2018-02-14T05:24:03.168Z,88.10
2018-02-14T05:24:36.868Z,88.20
2018-02-14T05:25:10.459Z,88.20
2018-02-14T05:25:44.184Z,88.00
2018-02-14T05:26:18.319Z,88.30
2018-02-14T05:26:51.998Z,88.20
2018-02-14T05:27:25.667Z,88.40
2018-02-14T05:28:00.101Z,88.30
2018-02-14T05:28:33.788Z,88.30
2018-02-14T05:29:07.465Z,88.30
2018-02-14T05:29:41.143Z,88.20
2018-02-14T05:30:15.579Z,88.30
2018-02-14T05:30:49.267Z,88.20
2018-02-14T05:31:22.972Z,88.20
2018-02-14T05:31:56.665Z,88.20
2018-02-14T05:32:30.355Z,88.20
2018-02-14T05:33:04.045Z,88.10
2018-02-14T05:33:37.721Z,88.10
2018-02-14T05:34:11.583Z,88.10
2018-02-14T05:34:46.024Z,88.30
2018-02-14T05:35:19.726Z,88.30
2018-02-14T05:35:53.402Z,88.50
2018-02-14T05:36:27.105Z,88.50
2018-02-14T05:37:00.786Z,88.50
2018-02-14T05:37:34.463Z,88.50
2018-02-14T05:38:08.140Z,88.50
2018-02-14T05:38:42.575Z,88.70
2018-02-14T05:39:16.248Z,88.70
2018-02-14T05:39:49.918Z,88.80
2018-02-14T05:40:24.369Z,88.90
2018-02-14T05:40:58.051Z,88.90
2018-02-14T05:41:31.764Z,88.90
2018-02-14T05:42:05.435Z,89.00
2018-02-14T05:42:39.126Z,89.10
2018-02-14T05:43:13.240Z,89.10
2018-02-14T05:43:46.913Z,89.20
2018-02-14T05:44:20.591Z,89.30
2018-02-14T05:44:54.273Z,89.30
2018-02-14T05:45:27.944Z,89.30
2018-02-14T05:46:02.382Z,89.30
2018-02-14T05:46:36.098Z,89.30
2018-02-14T05:47:09.808Z,89.20
2018-02-14T05:47:43.474Z,89.10
2018-02-14T05:48:17.151Z,89.10
2018-02-14T05:48:50.818Z,89.10
2018-02-14T05:49:24.483Z,89.10
2018-02-14T05:49:58.925Z,89.70
2018-02-14T05:50:32.625Z,89.10
2018-02-14T05:51:06.326Z,89.10
2018-02-14T05:51:40.016Z,89.10
2018-02-14T05:52:13.695Z,89.20
2018-02-14T05:52:47.371Z,89.20
2018-02-14T05:53:21.066Z,89.20
2018-02-14T05:53:54.559Z,89.30
2018-02-14T05:54:28.235Z,89.40
2018-02-14T05:55:01.916Z,89.40
2018-02-14T05:55:35.586Z,89.50
2018-02-14T05:56:10.036Z,89.60
2018-02-14T05:56:43.738Z,89.60
2018-02-14T05:57:17.419Z,89.60
2018-02-14T05:57:51.077Z,89.60
2018-02-14T05:58:25.519Z,89.60
2018-02-14T05:58:59.184Z,89.60
2018-02-14T05:59:32.872Z,89.70
2018-02-14T06:00:06.357Z,89.60
2018-02-14T06:00:40.051Z,89.60
2018-02-14T06:01:13.742Z,89.60
2018-02-14T06:01:47.498Z,89.60
2018-02-14T06:02:21.218Z,89.70
2018-02-14T06:02:54.892Z,89.80
2018-02-14T06:03:29.330Z,89.70
2018-02-14T06:04:03.007Z,89.70
2018-02-14T06:04:36.685Z,89.60
2018-02-14T06:05:11.137Z,89.70
2018-02-14T06:05:44.810Z,89.60
2018-02-14T06:06:18.473Z,89.50
2018-02-14T06:06:53.081Z,89.60
2018-02-14T06:07:27.524Z,89.70
2018-02-14T06:08:01.192Z,89.60
2018-02-14T06:08:35.098Z,89.70
2018-02-14T06:09:08.593Z,89.60
2018-02-14T06:09:42.261Z,89.60
2018-02-14T06:10:15.949Z,89.60
2018-02-14T06:10:49.655Z,89.60
2018-02-14T06:11:23.342Z,89.60
2018-02-14T06:11:57.330Z,89.70
2018-02-14T06:12:31.002Z,89.70
2018-02-14T06:13:05.442Z,89.80
2018-02-14T06:13:39.111Z,89.70
2018-02-14T06:14:12.790Z,89.70
2018-02-14T06:14:47.309Z,89.70
2018-02-14T06:15:20.999Z,89.70
2018-02-14T06:15:54.487Z,89.70
2018-02-14T06:16:28.205Z,89.70
2018-02-14T06:17:01.903Z,89.80
2018-02-14T06:17:35.578Z,89.80
2018-02-14T06:18:09.235Z,89.90
2018-02-14T06:18:43.678Z,89.90
2018-02-14T06:19:17.343Z,89.90
2018-02-14T06:19:51.030Z,89.90
2018-02-14T06:20:24.705Z,90.00
2018-02-14T06:20:59.126Z,90.00
2018-02-14T06:21:32.808Z,90.00
2018-02-14T06:22:06.498Z,89.90
2018-02-14T06:22:40.939Z,89.90
2018-02-14T06:23:14.600Z,89.90
2018-02-14T06:23:48.282Z,89.90
2018-02-14T06:24:22.521Z,90.00
2018-02-14T06:24:55.525Z,89.90
2018-02-14T06:25:29.230Z,89.90
2018-02-14T06:26:02.923Z,89.90
2018-02-14T06:26:37.390Z,89.90
2018-02-14T06:27:11.148Z,89.90
2018-02-14T06:27:44.831Z,89.90
2018-02-14T06:28:19.291Z,89.90
2018-02-14T06:28:52.958Z,89.90
2018-02-14T06:29:26.622Z,89.90
2018-02-14T06:30:01.124Z,89.90
2018-02-14T06:30:35.560Z,89.90
2018-02-14T06:31:09.241Z,89.90
2018-02-14T06:31:42.918Z,89.80
2018-02-14T06:32:16.618Z,89.80
2018-02-14T06:32:50.287Z,89.80
2018-02-14T06:33:24.740Z,90.00
2018-02-14T06:33:58.437Z,89.90
2018-02-14T06:34:32.175Z,90.00
2018-02-14T06:35:06.622Z,90.00
2018-02-14T06:35:40.293Z,90.00
2018-02-14T06:36:13.967Z,90.00
2018-02-14T06:36:47.652Z,90.00
2018-02-14T06:37:22.127Z,89.90
2018-02-14T06:37:55.802Z,89.90
2018-02-14T06:38:29.472Z,89.90
2018-02-14T06:39:02.639Z,89.80
2018-02-14T06:39:36.307Z,89.80
2018-02-14T06:40:10.756Z,89.70
2018-02-14T06:40:44.459Z,89.70
2018-02-14T06:41:18.149Z,89.70
2018-02-14T06:41:51.821Z,89.70
2018-02-14T06:42:25.875Z,89.60
2018-02-14T06:43:00.306Z,89.60
2018-02-14T06:43:33.982Z,89.60
2018-02-14T06:44:08.432Z,89.50
2018-02-14T06:44:42.102Z,89.50
2018-02-14T06:45:15.820Z,89.50
2018-02-14T06:45:49.512Z,89.40
2018-02-14T06:46:23.183Z,89.40
2018-02-14T06:46:56.865Z,89.40
2018-02-14T06:47:30.561Z,89.50
2018-02-14T06:48:04.230Z,89.50
2018-02-14T06:48:37.907Z,89.50
2018-02-14T06:49:12.374Z,89.40
2018-02-14T06:49:46.044Z,89.40
2018-02-14T06:50:19.718Z,89.50
2018-02-14T06:50:53.381Z,89.50
2018-02-14T06:51:27.820Z,89.40
2018-02-14T06:52:01.495Z,89.40
2018-02-14T06:52:35.205Z,89.40
2018-02-14T06:53:08.562Z,89.90
2018-02-14T06:53:42.292Z,89.30
2018-02-14T06:54:16.138Z,89.20
2018-02-14T06:54:50.569Z,89.10
2018-02-14T06:55:24.245Z,89.10
2018-02-14T06:55:57.922Z,89.20
2018-02-14T06:56:31.611Z,89.00
2018-02-14T06:57:06.051Z,88.90
2018-02-14T06:57:39.758Z,88.90
2018-02-14T06:58:13.434Z,88.80
2018-02-14T06:58:47.106Z,88.70
2018-02-14T06:59:20.777Z,88.70
2018-02-14T06:59:55.214Z,88.50
2018-02-14T07:00:28.903Z,88.50
2018-02-14T07:01:02.565Z,88.50
2018-02-14T07:01:37.011Z,88.50
2018-02-14T07:02:10.710Z,88.50
2018-02-14T07:02:44.417Z,88.40
2018-02-14T07:03:18.094Z,88.30
2018-02-14T07:03:51.768Z,88.80
2018-02-14T07:04:25.450Z,88.20
2018-02-14T07:04:59.125Z,88.20
2018-02-14T07:05:32.805Z,88.20
2018-02-14T07:06:06.494Z,88.20
2018-02-14T07:06:40.179Z,88.10
2018-02-14T07:07:14.610Z,88.00
2018-02-14T07:07:48.316Z,88.00
2018-02-14T07:08:22.001Z,87.90
2018-02-14T07:08:55.683Z,87.80
2018-02-14T07:09:29.353Z,87.70
2018-02-14T07:10:02.370Z,87.70
2018-02-14T07:10:36.060Z,87.70
2018-02-14T07:11:09.736Z,87.60
2018-02-14T07:11:43.435Z,87.50
2018-02-14T07:12:17.125Z,87.40
2018-02-14T07:12:51.189Z,87.40
2018-02-14T07:13:24.858Z,87.30
2018-02-14T07:13:59.322Z,87.40
2018-02-14T07:14:32.830Z,87.30
2018-02-14T07:15:06.483Z,87.30
2018-02-14T07:15:40.150Z,87.20
2018-02-14T07:16:13.815Z,87.10
2018-02-14T07:16:48.259Z,86.90
2018-02-14T07:17:21.936Z,86.90
2018-02-14T07:17:55.665Z,86.90